sensor_id;sensor_type;location;lat;lon;timestamp;P1;durP1;ratioP1;P2;durP2;ratioP2
58250;SDS011;51449;51.676;5.812;2023-06-26T00:00:54;18.73;;;16.85;;
58250;SDS011;51449;51.676;5.812;2023-06-26T00:03:16;18.55;;;16.75;;
58250;SDS011;51449;51.676;5.812;2023-06-26T00:05:38;18.75;;;16.88;;
58250;SDS011;51449;51.676;5.812;2023-06-26T00:07:59;18.30;;;16.63;;
58250;SDS011;51449;51.676;5.812;2023-06-26T00:10:21;18.40;;;16.80;;
58250;SDS011;51449;51.676;5.812;2023-06-26T00:12:43;18.60;;;16.90;;
58250;SDS011;51449;51.676;5.812;2023-06-26T00:15:05;18.23;;;16.52;;
58250;SDS011;51449;51.676;5.812;2023-06-26T00:17:29;18.33;;;16.42;;
58250;SDS011;51449;51.676;5.812;2023-06-26T00:19:51;19.65;;;17.73;;
58250;SDS011;51449;51.676;5.812;2023-06-26T00:22:13;19.42;;;17.52;;
58250;SDS011;51449;51.676;5.812;2023-06-26T00:24:34;18.23;;;16.63;;
58250;SDS011;51449;51.676;5.812;2023-06-26T00:26:56;19.10;;;17.05;;
58250;SDS011;51449;51.676;5.812;2023-06-26T00:29:19;18.30;;;16.60;;
58250;SDS011;51449;51.676;5.812;2023-06-26T00:31:41;18.85;;;17.05;;
58250;SDS011;51449;51.676;5.812;2023-06-26T00:34:03;15.95;;;14.55;;
58250;SDS011;51449;51.676;5.812;2023-06-26T00:36:25;17.38;;;15.85;;
58250;SDS011;51449;51.676;5.812;2023-06-26T00:38:47;18.45;;;16.75;;
58250;SDS011;51449;51.676;5.812;2023-06-26T00:41:09;17.50;;;15.95;;
58250;SDS011;51449;51.676;5.812;2023-06-26T00:43:34;17.13;;;15.43;;
58250;SDS011;51449;51.676;5.812;2023-06-26T00:45:56;16.65;;;15.00;;
58250;SDS011;51449;51.676;5.812;2023-06-26T00:48:17;15.43;;;13.98;;
58250;SDS011;51449;51.676;5.812;2023-06-26T00:50:41;16.10;;;14.63;;
58250;SDS011;51449;51.676;5.812;2023-06-26T00:53:04;15.07;;;13.52;;
58250;SDS011;51449;51.676;5.812;2023-06-26T00:55:26;14.35;;;12.93;;
58250;SDS011;51449;51.676;5.812;2023-06-26T00:57:49;14.50;;;13.00;;
58250;SDS011;51449;51.676;5.812;2023-06-26T01:00:11;15.93;;;14.32;;
58250;SDS011;51449;51.676;5.812;2023-06-26T01:02:34;15.10;;;13.60;;
58250;SDS011;51449;51.676;5.812;2023-06-26T01:04:57;14.85;;;13.43;;
58250;SDS011;51449;51.676;5.812;2023-06-26T01:07:19;14.68;;;13.38;;
58250;SDS011;51449;51.676;5.812;2023-06-26T01:09:42;15.57;;;14.18;;
58250;SDS011;51449;51.676;5.812;2023-06-26T01:12:04;14.32;;;12.82;;
58250;SDS011;51449;51.676;5.812;2023-06-26T01:14:27;14.23;;;12.90;;
58250;SDS011;51449;51.676;5.812;2023-06-26T01:16:48;14.45;;;13.13;;
58250;SDS011;51449;51.676;5.812;2023-06-26T01:21:50;13.30;;;12.07;;
58250;SDS011;51449;51.676;5.812;2023-06-26T01:24:20;13.60;;;12.30;;
58250;SDS011;51449;51.676;5.812;2023-06-26T01:26:43;12.70;;;11.55;;
58250;SDS011;51449;51.676;5.812;2023-06-26T01:29:08;12.32;;;11.13;;
58250;SDS011;51449;51.676;5.812;2023-06-26T01:31:34;12.98;;;11.73;;
58250;SDS011;51449;51.676;5.812;2023-06-26T01:33:57;13.18;;;11.93;;
58250;SDS011;51449;51.676;5.812;2023-06-26T01:36:20;12.98;;;11.70;;
58250;SDS011;51449;51.676;5.812;2023-06-26T01:38:43;13.02;;;11.63;;
58250;SDS011;51449;51.676;5.812;2023-06-26T01:41:05;12.90;;;11.60;;
58250;SDS011;51449;51.676;5.812;2023-06-26T01:51:51;9.90;;;7.78;;
58250;SDS011;51449;51.676;5.812;2023-06-26T01:54:35;7.00;;;6.38;;
58250;SDS011;51449;51.676;5.812;2023-06-26T01:57:13;5.93;;;5.32;;
58250;SDS011;51449;51.676;5.812;2023-06-26T01:59:40;6.05;;;5.35;;
58250;SDS011;51449;51.676;5.812;2023-06-26T02:02:06;6.78;;;5.57;;
58250;SDS011;51449;51.676;5.812;2023-06-26T02:04:31;5.70;;;4.63;;
58250;SDS011;51449;51.676;5.812;2023-06-26T02:06:53;5.80;;;4.22;;
58250;SDS011;51449;51.676;5.812;2023-06-26T02:09:16;5.68;;;4.47;;
58250;SDS011;51449;51.676;5.812;2023-06-26T02:11:38;5.88;;;4.07;;
58250;SDS011;51449;51.676;5.812;2023-06-26T02:13:59;5.38;;;4.20;;
58250;SDS011;51449;51.676;5.812;2023-06-26T02:16:21;5.05;;;4.55;;
58250;SDS011;51449;51.676;5.812;2023-06-26T02:18:43;5.60;;;4.35;;
58250;SDS011;51449;51.676;5.812;2023-06-26T02:21:06;6.18;;;4.18;;
58250;SDS011;51449;51.676;5.812;2023-06-26T02:23:28;5.87;;;3.90;;
58250;SDS011;51449;51.676;5.812;2023-06-26T02:25:51;5.43;;;4.18;;
58250;SDS011;51449;51.676;5.812;2023-06-26T02:28:13;6.13;;;4.53;;
58250;SDS011;51449;51.676;5.812;2023-06-26T02:30:36;7.32;;;4.43;;
58250;SDS011;51449;51.676;5.812;2023-06-26T02:32:58;5.38;;;4.47;;
58250;SDS011;51449;51.676;5.812;2023-06-26T02:35:20;5.47;;;4.22;;
58250;SDS011;51449;51.676;5.812;2023-06-26T02:37:41;5.30;;;4.18;;
58250;SDS011;51449;51.676;5.812;2023-06-26T02:40:03;7.78;;;4.57;;
58250;SDS011;51449;51.676;5.812;2023-06-26T02:42:27;8.33;;;4.87;;
58250;SDS011;51449;51.676;5.812;2023-06-26T02:44:49;5.53;;;4.22;;
58250;SDS011;51449;51.676;5.812;2023-06-26T02:47:10;5.82;;;4.55;;
58250;SDS011;51449;51.676;5.812;2023-06-26T02:49:36;5.72;;;4.22;;
58250;SDS011;51449;51.676;5.812;2023-06-26T02:51:57;5.88;;;4.40;;
58250;SDS011;51449;51.676;5.812;2023-06-26T02:54:22;8.93;;;4.80;;
58250;SDS011;51449;51.676;5.812;2023-06-26T02:56:47;8.48;;;4.28;;
58250;SDS011;51449;51.676;5.812;2023-06-26T02:59:14;8.55;;;4.90;;
58250;SDS011;51449;51.676;5.812;2023-06-26T03:01:36;6.45;;;4.88;;
58250;SDS011;51449;51.676;5.812;2023-06-26T03:03:58;5.85;;;4.70;;
58250;SDS011;51449;51.676;5.812;2023-06-26T03:06:21;7.30;;;4.72;;
58250;SDS011;51449;51.676;5.812;2023-06-26T03:08:43;7.85;;;4.80;;
58250;SDS011;51449;51.676;5.812;2023-06-26T03:11:08;6.50;;;4.85;;
58250;SDS011;51449;51.676;5.812;2023-06-26T03:13:32;7.63;;;4.78;;
58250;SDS011;51449;51.676;5.812;2023-06-26T03:15:57;9.38;;;5.13;;
58250;SDS011;51449;51.676;5.812;2023-06-26T03:18:19;7.38;;;4.47;;
58250;SDS011;51449;51.676;5.812;2023-06-26T03:20:41;6.78;;;4.75;;
58250;SDS011;51449;51.676;5.812;2023-06-26T03:23:03;10.32;;;4.63;;
58250;SDS011;51449;51.676;5.812;2023-06-26T03:25:25;8.27;;;4.90;;
58250;SDS011;51449;51.676;5.812;2023-06-26T03:28:19;7.53;;;4.70;;
58250;SDS011;51449;51.676;5.812;2023-06-26T03:30:41;7.93;;;4.80;;
58250;SDS011;51449;51.676;5.812;2023-06-26T03:33:03;7.95;;;5.57;;
58250;SDS011;51449;51.676;5.812;2023-06-26T03:35:25;10.25;;;4.72;;
58250;SDS011;51449;51.676;5.812;2023-06-26T03:37:48;9.93;;;4.70;;
58250;SDS011;51449;51.676;5.812;2023-06-26T03:40:11;8.73;;;5.03;;
58250;SDS011;51449;51.676;5.812;2023-06-26T03:42:32;10.13;;;4.95;;
58250;SDS011;51449;51.676;5.812;2023-06-26T03:44:54;7.78;;;5.00;;
58250;SDS011;51449;51.676;5.812;2023-06-26T03:47:16;6.90;;;4.90;;
58250;SDS011;51449;51.676;5.812;2023-06-26T03:49:37;10.50;;;5.13;;
58250;SDS011;51449;51.676;5.812;2023-06-26T03:51:59;10.13;;;5.38;;
58250;SDS011;51449;51.676;5.812;2023-06-26T03:54:21;8.40;;;5.00;;
58250;SDS011;51449;51.676;5.812;2023-06-26T03:56:42;11.95;;;5.47;;
58250;SDS011;51449;51.676;5.812;2023-06-26T03:59:04;10.52;;;5.90;;
58250;SDS011;51449;51.676;5.812;2023-06-26T04:01:26;8.85;;;4.93;;
58250;SDS011;51449;51.676;5.812;2023-06-26T04:03:49;9.52;;;5.63;;
58250;SDS011;51449;51.676;5.812;2023-06-26T04:06:10;10.05;;;5.38;;
58250;SDS011;51449;51.676;5.812;2023-06-26T04:08:32;9.18;;;5.78;;
58250;SDS011;51449;51.676;5.812;2023-06-26T04:10:54;5.97;;;4.88;;
58250;SDS011;51449;51.676;5.812;2023-06-26T04:13:19;10.93;;;6.00;;
58250;SDS011;51449;51.676;5.812;2023-06-26T04:15:40;10.23;;;5.40;;
58250;SDS011;51449;51.676;5.812;2023-06-26T04:18:02;12.13;;;6.25;;
58250;SDS011;51449;51.676;5.812;2023-06-26T04:20:24;10.73;;;5.97;;
58250;SDS011;51449;51.676;5.812;2023-06-26T04:22:46;10.48;;;6.20;;
58250;SDS011;51449;51.676;5.812;2023-06-26T04:25:08;11.10;;;6.28;;
58250;SDS011;51449;51.676;5.812;2023-06-26T04:27:33;7.30;;;6.25;;
58250;SDS011;51449;51.676;5.812;2023-06-26T04:29:57;9.65;;;6.80;;
58250;SDS011;51449;51.676;5.812;2023-06-26T04:32:19;8.95;;;6.78;;
58250;SDS011;51449;51.676;5.812;2023-06-26T04:34:41;11.10;;;7.43;;
58250;SDS011;51449;51.676;5.812;2023-06-26T04:39:27;9.90;;;6.88;;
58250;SDS011;51449;51.676;5.812;2023-06-26T04:41:49;11.23;;;7.05;;
58250;SDS011;51449;51.676;5.812;2023-06-26T04:44:10;11.43;;;7.10;;
58250;SDS011;51449;51.676;5.812;2023-06-26T04:46:33;10.48;;;6.50;;
58250;SDS011;51449;51.676;5.812;2023-06-26T04:48:54;9.52;;;6.20;;
58250;SDS011;51449;51.676;5.812;2023-06-26T04:53:42;12.00;;;7.07;;
58250;SDS011;51449;51.676;5.812;2023-06-26T04:56:04;10.57;;;6.53;;
58250;SDS011;51449;51.676;5.812;2023-06-26T04:58:25;12.50;;;6.47;;
58250;SDS011;51449;51.676;5.812;2023-06-26T05:00:47;12.27;;;7.47;;
58250;SDS011;51449;51.676;5.812;2023-06-26T05:03:10;12.77;;;7.40;;
58250;SDS011;51449;51.676;5.812;2023-06-26T05:05:34;9.90;;;7.57;;
58250;SDS011;51449;51.676;5.812;2023-06-26T05:07:56;10.77;;;6.68;;
58250;SDS011;51449;51.676;5.812;2023-06-26T05:10:17;12.27;;;7.03;;
58250;SDS011;51449;51.676;5.812;2023-06-26T05:12:39;10.18;;;6.60;;
58250;SDS011;51449;51.676;5.812;2023-06-26T05:15:01;9.60;;;6.20;;
58250;SDS011;51449;51.676;5.812;2023-06-26T05:17:23;11.02;;;6.32;;
58250;SDS011;51449;51.676;5.812;2023-06-26T05:19:45;14.73;;;6.80;;
58250;SDS011;51449;51.676;5.812;2023-06-26T05:22:08;10.00;;;6.18;;
58250;SDS011;51449;51.676;5.812;2023-06-26T05:24:30;11.73;;;6.45;;
58250;SDS011;51449;51.676;5.812;2023-06-26T05:26:52;14.82;;;6.50;;
58250;SDS011;51449;51.676;5.812;2023-06-26T05:29:14;12.88;;;6.90;;
58250;SDS011;51449;51.676;5.812;2023-06-26T05:31:38;14.52;;;6.10;;
58250;SDS011;51449;51.676;5.812;2023-06-26T05:34:03;13.45;;;6.00;;
58250;SDS011;51449;51.676;5.812;2023-06-26T05:36:25;11.65;;;6.10;;
58250;SDS011;51449;51.676;5.812;2023-06-26T05:38:49;10.55;;;5.95;;
58250;SDS011;51449;51.676;5.812;2023-06-26T05:41:12;15.43;;;5.80;;
58250;SDS011;51449;51.676;5.812;2023-06-26T05:43:34;12.32;;;6.47;;
58250;SDS011;51449;51.676;5.812;2023-06-26T05:45:56;14.82;;;6.60;;
58250;SDS011;51449;51.676;5.812;2023-06-26T05:48:21;13.07;;;5.43;;
58250;SDS011;51449;51.676;5.812;2023-06-26T05:50:43;11.73;;;5.43;;
58250;SDS011;51449;51.676;5.812;2023-06-26T05:53:06;13.65;;;6.18;;
58250;SDS011;51449;51.676;5.812;2023-06-26T05:55:29;12.77;;;5.90;;
58250;SDS011;51449;51.676;5.812;2023-06-26T05:57:51;16.70;;;7.07;;
58250;SDS011;51449;51.676;5.812;2023-06-26T06:00:15;16.13;;;5.65;;
58250;SDS011;51449;51.676;5.812;2023-06-26T06:02:37;11.88;;;5.32;;
58250;SDS011;51449;51.676;5.812;2023-06-26T06:05:00;14.15;;;5.60;;
58250;SDS011;51449;51.676;5.812;2023-06-26T06:07:22;16.58;;;5.93;;
58250;SDS011;51449;51.676;5.812;2023-06-26T06:09:43;12.45;;;5.63;;
58250;SDS011;51449;51.676;5.812;2023-06-26T06:12:06;11.57;;;5.60;;
58250;SDS011;51449;51.676;5.812;2023-06-26T06:14:29;14.63;;;5.90;;
58250;SDS011;51449;51.676;5.812;2023-06-26T06:16:50;13.45;;;5.85;;
58250;SDS011;51449;51.676;5.812;2023-06-26T06:19:12;14.50;;;5.35;;
58250;SDS011;51449;51.676;5.812;2023-06-26T06:21:35;13.13;;;5.45;;
58250;SDS011;51449;51.676;5.812;2023-06-26T06:23:56;11.75;;;5.57;;
58250;SDS011;51449;51.676;5.812;2023-06-26T06:26:18;11.40;;;5.20;;
58250;SDS011;51449;51.676;5.812;2023-06-26T06:28:40;14.00;;;5.25;;
58250;SDS011;51449;51.676;5.812;2023-06-26T06:31:02;13.02;;;4.93;;
58250;SDS011;51449;51.676;5.812;2023-06-26T06:33:24;12.48;;;5.00;;
58250;SDS011;51449;51.676;5.812;2023-06-26T06:35:45;11.85;;;4.82;;
58250;SDS011;51449;51.676;5.812;2023-06-26T06:38:07;11.57;;;4.88;;
58250;SDS011;51449;51.676;5.812;2023-06-26T06:40:29;10.27;;;5.20;;
58250;SDS011;51449;51.676;5.812;2023-06-26T06:42:51;12.80;;;5.35;;
58250;SDS011;51449;51.676;5.812;2023-06-26T06:45:12;15.70;;;4.90;;
58250;SDS011;51449;51.676;5.812;2023-06-26T06:47:34;13.48;;;4.68;;
58250;SDS011;51449;51.676;5.812;2023-06-26T06:49:56;11.95;;;4.72;;
58250;SDS011;51449;51.676;5.812;2023-06-26T06:52:18;13.27;;;5.43;;
58250;SDS011;51449;51.676;5.812;2023-06-26T06:54:50;9.18;;;4.65;;
58250;SDS011;51449;51.676;5.812;2023-06-26T06:57:23;10.23;;;4.30;;
58250;SDS011;51449;51.676;5.812;2023-06-26T06:59:45;9.10;;;4.25;;
58250;SDS011;51449;51.676;5.812;2023-06-26T07:02:08;7.13;;;4.00;;
58250;SDS011;51449;51.676;5.812;2023-06-26T07:04:30;7.90;;;4.18;;
58250;SDS011;51449;51.676;5.812;2023-06-26T07:06:52;13.57;;;4.13;;
58250;SDS011;51449;51.676;5.812;2023-06-26T07:09:13;7.18;;;3.20;;
58250;SDS011;51449;51.676;5.812;2023-06-26T07:11:36;9.38;;;3.58;;
58250;SDS011;51449;51.676;5.812;2023-06-26T07:13:57;9.77;;;3.63;;
58250;SDS011;51449;51.676;5.812;2023-06-26T07:16:19;6.75;;;3.55;;
58250;SDS011;51449;51.676;5.812;2023-06-26T07:18:41;5.97;;;3.60;;
58250;SDS011;51449;51.676;5.812;2023-06-26T07:21:03;7.28;;;3.50;;
58250;SDS011;51449;51.676;5.812;2023-06-26T07:23:25;5.85;;;3.28;;
58250;SDS011;51449;51.676;5.812;2023-06-26T07:25:47;6.38;;;3.30;;
58250;SDS011;51449;51.676;5.812;2023-06-26T07:28:11;9.00;;;3.60;;
58250;SDS011;51449;51.676;5.812;2023-06-26T07:30:33;6.20;;;3.40;;
58250;SDS011;51449;51.676;5.812;2023-06-26T07:32:55;4.65;;;3.10;;
58250;SDS011;51449;51.676;5.812;2023-06-26T07:35:17;6.60;;;3.70;;
58250;SDS011;51449;51.676;5.812;2023-06-26T07:37:39;5.90;;;3.10;;
58250;SDS011;51449;51.676;5.812;2023-06-26T07:40:02;6.50;;;3.55;;
58250;SDS011;51449;51.676;5.812;2023-06-26T07:42:25;8.07;;;3.72;;
58250;SDS011;51449;51.676;5.812;2023-06-26T07:44:46;6.93;;;3.70;;
58250;SDS011;51449;51.676;5.812;2023-06-26T07:47:08;8.82;;;3.70;;
58250;SDS011;51449;51.676;5.812;2023-06-26T07:49:31;6.45;;;4.05;;
58250;SDS011;51449;51.676;5.812;2023-06-26T07:51:53;10.05;;;4.03;;
58250;SDS011;51449;51.676;5.812;2023-06-26T07:54:15;8.95;;;3.42;;
58250;SDS011;51449;51.676;5.812;2023-06-26T07:56:52;7.63;;;3.83;;
58250;SDS011;51449;51.676;5.812;2023-06-26T07:59:21;7.70;;;3.55;;
58250;SDS011;51449;51.676;5.812;2023-06-26T08:01:44;6.07;;;3.65;;
58250;SDS011;51449;51.676;5.812;2023-06-26T08:04:06;6.00;;;3.45;;
58250;SDS011;51449;51.676;5.812;2023-06-26T08:06:28;7.95;;;4.10;;
58250;SDS011;51449;51.676;5.812;2023-06-26T08:08:50;8.00;;;3.90;;
58250;SDS011;51449;51.676;5.812;2023-06-26T08:11:11;7.45;;;4.95;;
58250;SDS011;51449;51.676;5.812;2023-06-26T08:13:33;7.63;;;3.88;;
58250;SDS011;51449;51.676;5.812;2023-06-26T08:15:55;5.65;;;3.88;;
58250;SDS011;51449;51.676;5.812;2023-06-26T08:18:17;5.15;;;3.78;;
58250;SDS011;51449;51.676;5.812;2023-06-26T08:20:40;8.13;;;4.07;;
58250;SDS011;51449;51.676;5.812;2023-06-26T08:23:01;6.32;;;4.45;;
58250;SDS011;51449;51.676;5.812;2023-06-26T08:25:23;6.80;;;4.03;;
58250;SDS011;51449;51.676;5.812;2023-06-26T08:27:45;7.70;;;3.95;;
58250;SDS011;51449;51.676;5.812;2023-06-26T08:30:07;4.18;;;3.47;;
58250;SDS011;51449;51.676;5.812;2023-06-26T08:32:29;6.10;;;3.65;;
58250;SDS011;51449;51.676;5.812;2023-06-26T08:34:51;7.38;;;3.47;;
58250;SDS011;51449;51.676;5.812;2023-06-26T08:37:13;7.20;;;4.07;;
58250;SDS011;51449;51.676;5.812;2023-06-26T08:39:35;7.03;;;3.88;;
58250;SDS011;51449;51.676;5.812;2023-06-26T08:41:57;6.97;;;4.32;;
58250;SDS011;51449;51.676;5.812;2023-06-26T08:44:18;6.50;;;3.95;;
58250;SDS011;51449;51.676;5.812;2023-06-26T08:46:45;6.20;;;3.33;;
58250;SDS011;51449;51.676;5.812;2023-06-26T08:49:14;7.40;;;3.60;;
58250;SDS011;51449;51.676;5.812;2023-06-26T08:51:49;4.70;;;2.83;;
58250;SDS011;51449;51.676;5.812;2023-06-26T08:56:50;5.88;;;3.00;;
58250;SDS011;51449;51.676;5.812;2023-06-26T08:59:12;6.75;;;2.83;;
58250;SDS011;51449;51.676;5.812;2023-06-26T09:01:36;5.30;;;3.15;;
58250;SDS011;51449;51.676;5.812;2023-06-26T09:03:59;4.97;;;2.85;;
58250;SDS011;51449;51.676;5.812;2023-06-26T09:06:21;4.57;;;2.75;;
58250;SDS011;51449;51.676;5.812;2023-06-26T09:08:43;4.03;;;2.60;;
58250;SDS011;51449;51.676;5.812;2023-06-26T09:11:05;5.18;;;2.50;;
58250;SDS011;51449;51.676;5.812;2023-06-26T09:13:30;4.70;;;2.50;;
58250;SDS011;51449;51.676;5.812;2023-06-26T09:15:52;6.68;;;1.92;;
58250;SDS011;51449;51.676;5.812;2023-06-26T09:18:17;6.30;;;2.25;;
58250;SDS011;51449;51.676;5.812;2023-06-26T09:20:40;3.22;;;1.90;;
58250;SDS011;51449;51.676;5.812;2023-06-26T09:23:02;2.45;;;1.63;;
58250;SDS011;51449;51.676;5.812;2023-06-26T09:25:25;4.90;;;1.77;;
58250;SDS011;51449;51.676;5.812;2023-06-26T09:27:48;3.43;;;1.40;;
58250;SDS011;51449;51.676;5.812;2023-06-26T09:30:11;3.75;;;1.45;;
58250;SDS011;51449;51.676;5.812;2023-06-26T09:32:36;1.90;;;1.15;;
58250;SDS011;51449;51.676;5.812;2023-06-26T09:34:58;3.72;;;1.40;;
58250;SDS011;51449;51.676;5.812;2023-06-26T09:37:21;2.88;;;1.40;;
58250;SDS011;51449;51.676;5.812;2023-06-26T09:39:46;3.05;;;1.13;;
58250;SDS011;51449;51.676;5.812;2023-06-26T09:42:08;2.95;;;1.20;;
58250;SDS011;51449;51.676;5.812;2023-06-26T09:44:31;2.58;;;1.17;;
58250;SDS011;51449;51.676;5.812;2023-06-26T09:46:53;3.97;;;1.40;;
58250;SDS011;51449;51.676;5.812;2023-06-26T09:49:16;4.78;;;1.30;;
58250;SDS011;51449;51.676;5.812;2023-06-26T09:51:39;3.08;;;1.20;;
58250;SDS011;51449;51.676;5.812;2023-06-26T09:54:03;3.55;;;1.25;;
58250;SDS011;51449;51.676;5.812;2023-06-26T09:56:27;2.63;;;1.00;;
58250;SDS011;51449;51.676;5.812;2023-06-26T09:58:50;2.35;;;1.30;;
58250;SDS011;51449;51.676;5.812;2023-06-26T10:01:13;2.75;;;1.20;;
58250;SDS011;51449;51.676;5.812;2023-06-26T10:03:36;2.67;;;1.00;;
58250;SDS011;51449;51.676;5.812;2023-06-26T10:05:57;3.65;;;1.15;;
58250;SDS011;51449;51.676;5.812;2023-06-26T10:10:43;4.50;;;1.50;;
58250;SDS011;51449;51.676;5.812;2023-06-26T10:13:15;3.78;;;1.42;;
58250;SDS011;51449;51.676;5.812;2023-06-26T10:15:44;2.33;;;1.30;;
58250;SDS011;51449;51.676;5.812;2023-06-26T10:18:08;2.30;;;1.10;;
58250;SDS011;51449;51.676;5.812;2023-06-26T10:20:31;2.55;;;1.05;;
58250;SDS011;51449;51.676;5.812;2023-06-26T10:22:53;3.67;;;1.20;;
58250;SDS011;51449;51.676;5.812;2023-06-26T10:25:21;3.67;;;1.40;;
58250;SDS011;51449;51.676;5.812;2023-06-26T10:27:50;4.07;;;1.70;;
58250;SDS011;51449;51.676;5.812;2023-06-26T10:30:18;3.25;;;1.25;;
58250;SDS011;51449;51.676;5.812;2023-06-26T10:32:50;2.05;;;1.20;;
58250;SDS011;51449;51.676;5.812;2023-06-26T10:35:13;4.60;;;1.40;;
58250;SDS011;51449;51.676;5.812;2023-06-26T10:37:45;3.30;;;1.08;;
58250;SDS011;51449;51.676;5.812;2023-06-26T10:40:10;3.30;;;1.40;;
58250;SDS011;51449;51.676;5.812;2023-06-26T10:42:37;3.33;;;1.20;;
58250;SDS011;51449;51.676;5.812;2023-06-26T10:45:13;4.65;;;1.40;;
58250;SDS011;51449;51.676;5.812;2023-06-26T10:47:37;2.83;;;1.40;;
58250;SDS011;51449;51.676;5.812;2023-06-26T10:50:18;4.32;;;1.40;;
58250;SDS011;51449;51.676;5.812;2023-06-26T10:52:44;3.83;;;1.20;;
58250;SDS011;51449;51.676;5.812;2023-06-26T10:55:08;3.78;;;1.27;;
58250;SDS011;51449;51.676;5.812;2023-06-26T10:57:30;4.10;;;1.40;;
58250;SDS011;51449;51.676;5.812;2023-06-26T11:00:26;3.22;;;1.48;;
58250;SDS011;51449;51.676;5.812;2023-06-26T11:02:50;3.95;;;1.10;;
58250;SDS011;51449;51.676;5.812;2023-06-26T11:05:12;3.47;;;1.20;;
58250;SDS011;51449;51.676;5.812;2023-06-26T11:08:02;2.08;;;0.95;;
58250;SDS011;51449;51.676;5.812;2023-06-26T11:10:25;3.28;;;1.25;;
58250;SDS011;51449;51.676;5.812;2023-06-26T11:12:47;1.45;;;1.05;;
58250;SDS011;51449;51.676;5.812;2023-06-26T11:15:10;3.15;;;1.25;;
58250;SDS011;51449;51.676;5.812;2023-06-26T11:17:35;3.45;;;1.10;;
58250;SDS011;51449;51.676;5.812;2023-06-26T11:19:58;3.33;;;1.20;;
58250;SDS011;51449;51.676;5.812;2023-06-26T11:22:23;3.20;;;1.00;;
58250;SDS011;51449;51.676;5.812;2023-06-26T11:24:48;3.50;;;1.30;;
58250;SDS011;51449;51.676;5.812;2023-06-26T11:27:15;2.42;;;1.10;;
58250;SDS011;51449;51.676;5.812;2023-06-26T11:29:37;1.92;;;1.10;;
58250;SDS011;51449;51.676;5.812;2023-06-26T11:31:59;2.78;;;1.17;;
58250;SDS011;51449;51.676;5.812;2023-06-26T11:34:29;2.50;;;1.20;;
58250;SDS011;51449;51.676;5.812;2023-06-26T11:36:51;1.20;;;0.93;;
58250;SDS011;51449;51.676;5.812;2023-06-26T11:39:14;1.52;;;1.13;;
58250;SDS011;51449;51.676;5.812;2023-06-26T11:41:36;2.80;;;1.42;;
58250;SDS011;51449;51.676;5.812;2023-06-26T11:44:03;3.90;;;1.25;;
58250;SDS011;51449;51.676;5.812;2023-06-26T11:46:27;3.40;;;1.02;;
58250;SDS011;51449;51.676;5.812;2023-06-26T11:48:49;2.20;;;1.23;;
58250;SDS011;51449;51.676;5.812;2023-06-26T11:51:17;3.03;;;1.33;;
58250;SDS011;51449;51.676;5.812;2023-06-26T11:53:40;1.60;;;1.20;;
58250;SDS011;51449;51.676;5.812;2023-06-26T11:56:13;3.35;;;1.35;;
58250;SDS011;51449;51.676;5.812;2023-06-26T11:59:23;4.25;;;1.38;;
58250;SDS011;51449;51.676;5.812;2023-06-26T12:01:34;2.88;;;1.08;;
58250;SDS011;51449;51.676;5.812;2023-06-26T12:04:08;4.55;;;1.10;;
58250;SDS011;51449;51.676;5.812;2023-06-26T12:06:36;1.75;;;1.33;;
58250;SDS011;51449;51.676;5.812;2023-06-26T12:09:09;1.70;;;1.38;;
58250;SDS011;51449;51.676;5.812;2023-06-26T12:11:33;4.63;;;1.30;;
58250;SDS011;51449;51.676;5.812;2023-06-26T12:13:58;3.53;;;1.70;;
58250;SDS011;51449;51.676;5.812;2023-06-26T12:16:21;3.28;;;1.20;;
58250;SDS011;51449;51.676;5.812;2023-06-26T12:18:43;2.63;;;0.98;;
58250;SDS011;51449;51.676;5.812;2023-06-26T12:21:05;3.33;;;1.45;;
58250;SDS011;51449;51.676;5.812;2023-06-26T12:23:33;3.20;;;1.33;;
58250;SDS011;51449;51.676;5.812;2023-06-26T12:26:15;2.53;;;1.13;;
58250;SDS011;51449;51.676;5.812;2023-06-26T12:28:43;2.10;;;1.10;;
58250;SDS011;51449;51.676;5.812;2023-06-26T12:31:16;3.65;;;1.27;;
58250;SDS011;51449;51.676;5.812;2023-06-26T12:33:51;2.28;;;1.20;;
58250;SDS011;51449;51.676;5.812;2023-06-26T12:36:14;2.75;;;1.40;;
58250;SDS011;51449;51.676;5.812;2023-06-26T12:38:45;3.33;;;1.20;;
58250;SDS011;51449;51.676;5.812;2023-06-26T12:41:14;3.13;;;1.20;;
58250;SDS011;51449;51.676;5.812;2023-06-26T12:43:38;3.47;;;1.30;;
58250;SDS011;51449;51.676;5.812;2023-06-26T12:46:01;2.03;;;1.10;;
58250;SDS011;51449;51.676;5.812;2023-06-26T12:51:08;1.48;;;1.20;;
58250;SDS011;51449;51.676;5.812;2023-06-26T12:53:34;3.83;;;1.40;;
58250;SDS011;51449;51.676;5.812;2023-06-26T12:55:57;2.15;;;1.20;;
58250;SDS011;51449;51.676;5.812;2023-06-26T12:58:19;4.00;;;1.50;;
58250;SDS011;51449;51.676;5.812;2023-06-26T13:00:42;4.85;;;1.35;;
58250;SDS011;51449;51.676;5.812;2023-06-26T13:03:04;3.08;;;1.35;;
58250;SDS011;51449;51.676;5.812;2023-06-26T13:05:26;6.10;;;2.22;;
58250;SDS011;51449;51.676;5.812;2023-06-26T13:07:47;3.95;;;1.65;;
58250;SDS011;51449;51.676;5.812;2023-06-26T13:10:09;4.80;;;1.98;;
58250;SDS011;51449;51.676;5.812;2023-06-26T13:12:31;4.35;;;1.85;;
58250;SDS011;51449;51.676;5.812;2023-06-26T13:14:53;3.42;;;1.67;;
58250;SDS011;51449;51.676;5.812;2023-06-26T13:17:15;4.72;;;2.13;;
58250;SDS011;51449;51.676;5.812;2023-06-26T13:19:36;3.08;;;1.70;;
58250;SDS011;51449;51.676;5.812;2023-06-26T13:21:58;3.65;;;1.50;;
58250;SDS011;51449;51.676;5.812;2023-06-26T13:24:21;4.47;;;2.10;;
58250;SDS011;51449;51.676;5.812;2023-06-26T13:26:43;2.25;;;1.60;;
58250;SDS011;51449;51.676;5.812;2023-06-26T13:29:05;2.17;;;1.58;;
58250;SDS011;51449;51.676;5.812;2023-06-26T13:31:27;5.95;;;1.65;;
58250;SDS011;51449;51.676;5.812;2023-06-26T13:33:49;3.85;;;1.40;;
58250;SDS011;51449;51.676;5.812;2023-06-26T13:36:11;3.45;;;1.70;;
58250;SDS011;51449;51.676;5.812;2023-06-26T13:38:33;4.65;;;1.60;;
58250;SDS011;51449;51.676;5.812;2023-06-26T13:40:55;4.30;;;1.50;;
58250;SDS011;51449;51.676;5.812;2023-06-26T13:43:23;3.58;;;1.58;;
58250;SDS011;51449;51.676;5.812;2023-06-26T13:45:46;3.85;;;1.38;;
58250;SDS011;51449;51.676;5.812;2023-06-26T13:48:07;2.65;;;1.45;;
58250;SDS011;51449;51.676;5.812;2023-06-26T13:50:29;3.00;;;1.17;;
58250;SDS011;51449;51.676;5.812;2023-06-26T13:53:11;3.90;;;1.30;;
58250;SDS011;51449;51.676;5.812;2023-06-26T13:55:34;2.58;;;1.48;;
58250;SDS011;51449;51.676;5.812;2023-06-26T13:57:56;2.13;;;1.55;;
58250;SDS011;51449;51.676;5.812;2023-06-26T14:00:18;1.85;;;1.10;;
58250;SDS011;51449;51.676;5.812;2023-06-26T14:02:43;2.80;;;1.33;;
58250;SDS011;51449;51.676;5.812;2023-06-26T14:05:05;3.78;;;1.60;;
58250;SDS011;51449;51.676;5.812;2023-06-26T14:07:27;5.40;;;1.50;;
58250;SDS011;51449;51.676;5.812;2023-06-26T14:09:49;2.97;;;1.45;;
58250;SDS011;51449;51.676;5.812;2023-06-26T14:12:11;3.75;;;1.27;;
58250;SDS011;51449;51.676;5.812;2023-06-26T14:14:34;3.33;;;1.45;;
58250;SDS011;51449;51.676;5.812;2023-06-26T14:16:55;3.53;;;1.40;;
58250;SDS011;51449;51.676;5.812;2023-06-26T14:19:17;3.63;;;1.30;;
58250;SDS011;51449;51.676;5.812;2023-06-26T14:21:39;3.38;;;1.30;;
58250;SDS011;51449;51.676;5.812;2023-06-26T14:24:02;3.28;;;1.45;;
58250;SDS011;51449;51.676;5.812;2023-06-26T14:26:23;3.75;;;1.50;;
58250;SDS011;51449;51.676;5.812;2023-06-26T14:28:45;2.65;;;1.48;;
58250;SDS011;51449;51.676;5.812;2023-06-26T14:31:08;3.55;;;1.25;;
58250;SDS011;51449;51.676;5.812;2023-06-26T14:33:29;2.25;;;1.45;;
58250;SDS011;51449;51.676;5.812;2023-06-26T14:35:51;2.03;;;1.30;;
58250;SDS011;51449;51.676;5.812;2023-06-26T14:38:13;3.40;;;1.45;;
58250;SDS011;51449;51.676;5.812;2023-06-26T14:40:35;4.85;;;1.60;;
58250;SDS011;51449;51.676;5.812;2023-06-26T14:42:58;4.00;;;1.55;;
58250;SDS011;51449;51.676;5.812;2023-06-26T14:45:20;4.07;;;1.50;;